sensor_id;sensor_type;location;lat;lon;timestamp;pressure;altitude;pressure_sealevel;temperature;humidity
70198;BME280;57582;-34.876;138.628;2023-08-07T00:01:03;102775;;;11.48;67.19
70198;BME280;57582;-34.876;138.628;2023-08-07T00:04:03;102776;;;11.64;67.22
70198;BME280;57582;-34.876;138.628;2023-08-07T00:07:03;102774;;;11.73;66.23
70198;BME280;57582;-34.876;138.628;2023-08-07T00:10:03;102781;;;11.80;66.28
70198;BME280;57582;-34.876;138.628;2023-08-07T00:13:03;102789;;;12.02;66.95
70198;BME280;57582;-34.876;138.628;2023-08-07T00:16:03;102783;;;11.83;64.88
70198;BME280;57582;-34.876;138.628;2023-08-07T00:19:03;102787;;;11.98;65.27
70198;BME280;57582;-34.876;138.628;2023-08-07T00:22:03;102788;;;12.00;64.29
70198;BME280;57582;-34.876;138.628;2023-08-07T00:25:03;102788;;;11.62;65.62
70198;BME280;57582;-34.876;138.628;2023-08-07T00:28:03;102777;;;12.16;66.03
70198;BME280;57582;-34.876;138.628;2023-08-07T00:31:03;102764;;;12.59;63.58
70198;BME280;57582;-34.876;138.628;2023-08-07T00:34:03;102763;;;13.20;65.69
70198;BME280;57582;-34.876;138.628;2023-08-07T00:37:03;102761;;;12.68;61.64
70198;BME280;57582;-34.876;138.628;2023-08-07T00:40:03;102765;;;12.94;63.07
70198;BME280;57582;-34.876;138.628;2023-08-07T00:43:03;102762;;;12.70;62.38
70198;BME280;57582;-34.876;138.628;2023-08-07T00:46:03;102758;;;12.88;63.12
70198;BME280;57582;-34.876;138.628;2023-08-07T00:49:03;102762;;;13.12;64.38
70198;BME280;57582;-34.876;138.628;2023-08-07T00:52:03;102762;;;13.23;61.04
70198;BME280;57582;-34.876;138.628;2023-08-07T00:55:03;102747;;;13.11;62.70
70198;BME280;57582;-34.876;138.628;2023-08-07T00:58:03;102747;;;13.52;63.59
70198;BME280;57582;-34.876;138.628;2023-08-07T01:01:03;102735;;;13.85;61.48
70198;BME280;57582;-34.876;138.628;2023-08-07T01:04:03;102731;;;13.76;59.90
70198;BME280;57582;-34.876;138.628;2023-08-07T01:07:04;102731;;;14.05;60.52
70198;BME280;57582;-34.876;138.628;2023-08-07T01:10:03;102743;;;14.25;61.38
70198;BME280;57582;-34.876;138.628;2023-08-07T01:13:05;102729;;;14.52;59.76
70198;BME280;57582;-34.876;138.628;2023-08-07T01:16:05;102727;;;14.19;56.14
70198;BME280;57582;-34.876;138.628;2023-08-07T01:19:04;102741;;;13.76;57.63
70198;BME280;57582;-34.876;138.628;2023-08-07T01:25:03;102725;;;13.74;58.86
70198;BME280;57582;-34.876;138.628;2023-08-07T01:28:06;102728;;;14.12;60.72
70198;BME280;57582;-34.876;138.628;2023-08-07T01:31:04;102719;;;14.28;58.58
70198;BME280;57582;-34.876;138.628;2023-08-07T01:34:05;102721;;;14.11;56.44
70198;BME280;57582;-34.876;138.628;2023-08-07T01:37:03;102719;;;13.82;58.16
70198;BME280;57582;-34.876;138.628;2023-08-07T01:40:03;102712;;;13.84;58.41
70198;BME280;57582;-34.876;138.628;2023-08-07T01:43:03;102714;;;13.96;58.08
70198;BME280;57582;-34.876;138.628;2023-08-07T01:46:03;102702;;;14.08;57.93
70198;BME280;57582;-34.876;138.628;2023-08-07T01:49:03;102696;;;14.26;56.43
70198;BME280;57582;-34.876;138.628;2023-08-07T01:52:03;102691;;;14.34;58.00
70198;BME280;57582;-34.876;138.628;2023-08-07T01:55:04;102688;;;14.59;56.01
70198;BME280;57582;-34.876;138.628;2023-08-07T01:58:03;102682;;;14.82;55.55
70198;BME280;57582;-34.876;138.628;2023-08-07T02:01:03;102678;;;15.00;53.81
70198;BME280;57582;-34.876;138.628;2023-08-07T02:04:03;102674;;;15.02;53.59
70198;BME280;57582;-34.876;138.628;2023-08-07T02:07:03;102666;;;14.80;53.60
70198;BME280;57582;-34.876;138.628;2023-08-07T02:10:03;102668;;;14.83;53.48
70198;BME280;57582;-34.876;138.628;2023-08-07T02:13:03;102669;;;14.91;53.36
70198;BME280;57582;-34.876;138.628;2023-08-07T02:16:03;102653;;;14.74;53.65
70198;BME280;57582;-34.876;138.628;2023-08-07T02:19:03;102647;;;14.83;54.79
70198;BME280;57582;-34.876;138.628;2023-08-07T02:22:03;102647;;;14.80;53.17
70198;BME280;57582;-34.876;138.628;2023-08-07T02:25:03;102648;;;14.88;53.01
70198;BME280;57582;-34.876;138.628;2023-08-07T02:28:03;102643;;;15.19;52.83
70198;BME280;57582;-34.876;138.628;2023-08-07T02:31:03;102642;;;15.20;51.48
70198;BME280;57582;-34.876;138.628;2023-08-07T02:34:03;102639;;;15.12;52.03
70198;BME280;57582;-34.876;138.628;2023-08-07T02:37:03;102634;;;15.17;51.70
70198;BME280;57582;-34.876;138.628;2023-08-07T02:40:03;102631;;;14.94;52.91
70198;BME280;57582;-34.876;138.628;2023-08-07T02:43:03;102626;;;15.16;53.17
70198;BME280;57582;-34.876;138.628;2023-08-07T02:46:03;102625;;;15.35;53.38
70198;BME280;57582;-34.876;138.628;2023-08-07T02:49:03;102617;;;15.77;53.53
70198;BME280;57582;-34.876;138.628;2023-08-07T02:52:03;102611;;;16.12;52.68
70198;BME280;57582;-34.876;138.628;2023-08-07T02:55:04;102610;;;16.45;52.13
70198;BME280;57582;-34.876;138.628;2023-08-07T02:58:03;102604;;;16.69;51.39
70198;BME280;57582;-34.876;138.628;2023-08-07T03:01:04;102596;;;16.87;50.67
70198;BME280;57582;-34.876;138.628;2023-08-07T03:04:03;102589;;;17.05;51.19
70198;BME280;57582;-34.876;138.628;2023-08-07T03:07:04;102578;;;17.28;50.49
70198;BME280;57582;-34.876;138.628;2023-08-07T03:10:03;102580;;;17.43;50.22
70198;BME280;57582;-34.876;138.628;2023-08-07T03:13:03;102577;;;17.11;48.19
70198;BME280;57582;-34.876;138.628;2023-08-07T03:16:04;102565;;;17.13;49.54
70198;BME280;57582;-34.876;138.628;2023-08-07T03:19:04;102571;;;16.79;49.69
70198;BME280;57582;-34.876;138.628;2023-08-07T03:22:03;102563;;;17.01;49.61
70198;BME280;57582;-34.876;138.628;2023-08-07T03:25:03;102561;;;17.11;48.84
70198;BME280;57582;-34.876;138.628;2023-08-07T03:28:03;102544;;;17.32;48.28
70198;BME280;57582;-34.876;138.628;2023-08-07T03:31:04;102540;;;17.18;46.78
70198;BME280;57582;-34.876;138.628;2023-08-07T03:34:03;102538;;;16.83;47.82
70198;BME280;57582;-34.876;138.628;2023-08-07T03:37:03;102531;;;17.00;47.58
70198;BME280;57582;-34.876;138.628;2023-08-07T03:40:03;102530;;;16.99;48.39
70198;BME280;57582;-34.876;138.628;2023-08-07T03:43:04;102523;;;17.19;47.80
70198;BME280;57582;-34.876;138.628;2023-08-07T03:46:03;102526;;;17.19;49.46
70198;BME280;57582;-34.876;138.628;2023-08-07T03:49:03;102518;;;17.33;50.23
70198;BME280;57582;-34.876;138.628;2023-08-07T03:52:03;102519;;;17.12;48.53
70198;BME280;57582;-34.876;138.628;2023-08-07T03:55:04;102509;;;17.29;48.48
70198;BME280;57582;-34.876;138.628;2023-08-07T03:58:03;102508;;;17.17;48.07
70198;BME280;57582;-34.876;138.628;2023-08-07T04:01:03;102508;;;17.04;49.05
70198;BME280;57582;-34.876;138.628;2023-08-07T04:04:03;102508;;;16.95;49.32
70198;BME280;57582;-34.876;138.628;2023-08-07T04:07:04;102512;;;17.08;49.34
70198;BME280;57582;-34.876;138.628;2023-08-07T04:10:03;102516;;;17.01;49.27
70198;BME280;57582;-34.876;138.628;2023-08-07T04:13:03;102514;;;16.90;49.62
70198;BME280;57582;-34.876;138.628;2023-08-07T04:16:03;102519;;;17.01;49.37
70198;BME280;57582;-34.876;138.628;2023-08-07T04:19:04;102507;;;17.18;49.00
70198;BME280;57582;-34.876;138.628;2023-08-07T04:22:03;102506;;;17.08;49.26
70198;BME280;57582;-34.876;138.628;2023-08-07T04:25:03;102513;;;16.78;49.47
70198;BME280;57582;-34.876;138.628;2023-08-07T04:28:03;102518;;;16.73;50.51
70198;BME280;57582;-34.876;138.628;2023-08-07T04:31:04;102511;;;16.80;50.52
70198;BME280;57582;-34.876;138.628;2023-08-07T04:34:03;102511;;;16.88;50.44
70198;BME280;57582;-34.876;138.628;2023-08-07T04:37:03;102509;;;16.98;50.48
70198;BME280;57582;-34.876;138.628;2023-08-07T04:40:03;102498;;;17.09;49.94
70198;BME280;57582;-34.876;138.628;2023-08-07T04:43:04;102497;;;17.07;49.95
70198;BME280;57582;-34.876;138.628;2023-08-07T04:46:03;102489;;;17.04;50.10
70198;BME280;57582;-34.876;138.628;2023-08-07T04:49:03;102485;;;17.02;50.44
70198;BME280;57582;-34.876;138.628;2023-08-07T04:52:03;102494;;;16.91;50.36
70198;BME280;57582;-34.876;138.628;2023-08-07T04:55:04;102489;;;16.95;50.24
70198;BME280;57582;-34.876;138.628;2023-08-07T04:58:03;102488;;;16.97;50.39
70198;BME280;57582;-34.876;138.628;2023-08-07T05:01:03;102488;;;16.94;50.66
70198;BME280;57582;-34.876;138.628;2023-08-07T05:04:03;102486;;;16.99;50.82
70198;BME280;57582;-34.876;138.628;2023-08-07T05:07:04;102490;;;17.01;50.22
70198;BME280;57582;-34.876;138.628;2023-08-07T05:10:03;102491;;;17.07;49.93
70198;BME280;57582;-34.876;138.628;2023-08-07T05:13:03;102500;;;17.01;50.11
70198;BME280;57582;-34.876;138.628;2023-08-07T05:16:03;102493;;;16.97;50.41
70198;BME280;57582;-34.876;138.628;2023-08-07T05:19:04;102505;;;16.91;50.44
70198;BME280;57582;-34.876;138.628;2023-08-07T05:22:04;102504;;;16.84;50.71
70198;BME280;57582;-34.876;138.628;2023-08-07T05:25:04;102504;;;16.78;51.09
70198;BME280;57582;-34.876;138.628;2023-08-07T05:28:03;102501;;;16.71;51.09
70198;BME280;57582;-34.876;138.628;2023-08-07T05:31:04;102498;;;16.74;51.25
70198;BME280;57582;-34.876;138.628;2023-08-07T05:34:03;102496;;;16.79;51.07
70198;BME280;57582;-34.876;138.628;2023-08-07T05:37:03;102494;;;16.78;51.08
70198;BME280;57582;-34.876;138.628;2023-08-07T05:40:03;102496;;;16.73;51.50
70198;BME280;57582;-34.876;138.628;2023-08-07T05:43:04;102498;;;16.74;51.78
70198;BME280;57582;-34.876;138.628;2023-08-07T05:46:03;102501;;;16.81;51.60
70198;BME280;57582;-34.876;138.628;2023-08-07T05:49:03;102504;;;16.68;51.65
70198;BME280;57582;-34.876;138.628;2023-08-07T05:52:03;102498;;;16.69;51.65
70198;BME280;57582;-34.876;138.628;2023-08-07T05:55:04;102502;;;16.72;51.77
70198;BME280;57582;-34.876;138.628;2023-08-07T05:58:03;102501;;;16.76;51.73
70198;BME280;57582;-34.876;138.628;2023-08-07T06:01:03;102500;;;16.85;51.54
70198;BME280;57582;-34.876;138.628;2023-08-07T06:04:03;102503;;;16.77;52.02
70198;BME280;57582;-34.876;138.628;2023-08-07T06:07:04;102494;;;16.78;52.33
70198;BME280;57582;-34.876;138.628;2023-08-07T06:10:04;102498;;;16.68;52.23
70198;BME280;57582;-34.876;138.628;2023-08-07T06:13:03;102493;;;16.65;52.35
70198;BME280;57582;-34.876;138.628;2023-08-07T06:16:03;102494;;;16.62;52.67
70198;BME280;57582;-34.876;138.628;2023-08-07T06:19:04;102494;;;16.65;52.87
70198;BME280;57582;-34.876;138.628;2023-08-07T06:22:04;102492;;;16.54;52.79
70198;BME280;57582;-34.876;138.628;2023-08-07T06:25:03;102492;;;16.60;52.75
70198;BME280;57582;-34.876;138.628;2023-08-07T06:28:03;102493;;;16.70;52.81
70198;BME280;57582;-34.876;138.628;2023-08-07T06:31:04;102484;;;16.69;52.56
70198;BME280;57582;-34.876;138.628;2023-08-07T06:34:04;102491;;;16.62;52.91
70198;BME280;57582;-34.876;138.628;2023-08-07T06:37:04;102492;;;16.70;53.00
70198;BME280;57582;-34.876;138.628;2023-08-07T06:40:03;102489;;;16.52;52.88
70198;BME280;57582;-34.876;138.628;2023-08-07T06:43:04;102493;;;16.45;53.36
70198;BME280;57582;-34.876;138.628;2023-08-07T06:46:04;102499;;;16.33;53.87
70198;BME280;57582;-34.876;138.628;2023-08-07T06:49:03;102489;;;16.27;53.90
70198;BME280;57582;-34.876;138.628;2023-08-07T06:52:04;102500;;;16.30;53.87
70198;BME280;57582;-34.876;138.628;2023-08-07T06:55:04;102502;;;16.17;54.11
70198;BME280;57582;-34.876;138.628;2023-08-07T06:58:04;102500;;;16.05;54.42
70198;BME280;57582;-34.876;138.628;2023-08-07T07:01:03;102505;;;16.01;54.52
70198;BME280;57582;-34.876;138.628;2023-08-07T07:04:03;102516;;;15.96;54.80
70198;BME280;57582;-34.876;138.628;2023-08-07T07:07:04;102512;;;15.98;54.50
70198;BME280;57582;-34.876;138.628;2023-08-07T07:10:04;102510;;;15.92;54.69
70198;BME280;57582;-34.876;138.628;2023-08-07T07:13:03;102516;;;15.72;55.11
70198;BME280;57582;-34.876;138.628;2023-08-07T07:16:03;102505;;;15.67;55.23
70198;BME280;57582;-34.876;138.628;2023-08-07T07:19:04;102510;;;15.65;55.19
70198;BME280;57582;-34.876;138.628;2023-08-07T07:22:04;102511;;;15.66;55.30
70198;BME280;57582;-34.876;138.628;2023-08-07T07:25:03;102506;;;15.57;55.38
70198;BME280;57582;-34.876;138.628;2023-08-07T07:28:03;102512;;;15.55;55.55
70198;BME280;57582;-34.876;138.628;2023-08-07T07:31:04;102519;;;15.52;55.75
70198;BME280;57582;-34.876;138.628;2023-08-07T07:34:04;102523;;;15.46;55.86
70198;BME280;57582;-34.876;138.628;2023-08-07T07:37:03;102518;;;15.43;55.94
70198;BME280;57582;-34.876;138.628;2023-08-07T07:40:03;102520;;;15.39;55.94
70198;BME280;57582;-34.876;138.628;2023-08-07T07:43:04;102522;;;15.37;56.05
70198;BME280;57582;-34.876;138.628;2023-08-07T07:46:04;102529;;;15.36;56.08
70198;BME280;57582;-34.876;138.628;2023-08-07T07:49:03;102520;;;15.36;56.24
70198;BME280;57582;-34.876;138.628;2023-08-07T07:52:04;102525;;;15.36;56.23
70198;BME280;57582;-34.876;138.628;2023-08-07T07:55:04;102520;;;15.33;56.18
70198;BME280;57582;-34.876;138.628;2023-08-07T07:58:04;102523;;;15.31;56.41
70198;BME280;57582;-34.876;138.628;2023-08-07T08:01:03;102521;;;15.27;56.47
70198;BME280;57582;-34.876;138.628;2023-08-07T08:04:04;102521;;;15.22;56.56
70198;BME280;57582;-34.876;138.628;2023-08-07T08:07:04;102507;;;15.13;56.76
70198;BME280;57582;-34.876;138.628;2023-08-07T08:10:05;102515;;;15.09;56.85
70198;BME280;57582;-34.876;138.628;2023-08-07T08:13:03;102515;;;15.04;56.98
70198;BME280;57582;-34.876;138.628;2023-08-07T08:16:04;102510;;;14.95;57.45
70198;BME280;57582;-34.876;138.628;2023-08-07T08:19:04;102512;;;14.90;57.79
70198;BME280;57582;-34.876;138.628;2023-08-07T08:22:04;102504;;;14.85;57.78
70198;BME280;57582;-34.876;138.628;2023-08-07T08:25:04;102515;;;14.82;58.01
70198;BME280;57582;-34.876;138.628;2023-08-07T08:28:03;102522;;;14.73;58.23
70198;BME280;57582;-34.876;138.628;2023-08-07T08:31:04;102527;;;14.66;58.27
70198;BME280;57582;-34.876;138.628;2023-08-07T08:34:04;102531;;;14.62;58.67
70198;BME280;57582;-34.876;138.628;2023-08-07T08:37:04;102533;;;14.61;58.59
70198;BME280;57582;-34.876;138.628;2023-08-07T08:40:04;102535;;;14.63;59.60
70198;BME280;57582;-34.876;138.628;2023-08-07T08:43:04;102529;;;14.77;58.60
70198;BME280;57582;-34.876;138.628;2023-08-07T08:46:04;102532;;;14.92;58.98
70198;BME280;57582;-34.876;138.628;2023-08-07T08:49:04;102524;;;15.14;58.44
70198;BME280;57582;-34.876;138.628;2023-08-07T08:52:04;102534;;;15.25;58.07
70198;BME280;57582;-34.876;138.628;2023-08-07T08:55:04;102536;;;15.43;57.67
70198;BME280;57582;-34.876;138.628;2023-08-07T08:58:04;102530;;;15.55;56.73
70198;BME280;57582;-34.876;138.628;2023-08-07T09:01:04;102525;;;15.71;55.96
70198;BME280;57582;-34.876;138.628;2023-08-07T09:04:03;102528;;;15.82;54.55
70198;BME280;57582;-34.876;138.628;2023-08-07T09:07:04;102523;;;15.89;54.61
70198;BME280;57582;-34.876;138.628;2023-08-07T09:10:04;102527;;;15.96;54.39
70198;BME280;57582;-34.876;138.628;2023-08-07T09:13:04;102529;;;15.96;54.12
70198;BME280;57582;-34.876;138.628;2023-08-07T09:16:04;102537;;;16.07;53.23
70198;BME280;57582;-34.876;138.628;2023-08-07T09:19:04;102540;;;16.03;53.41
70198;BME280;57582;-34.876;138.628;2023-08-07T09:22:04;102546;;;16.03;53.34
70198;BME280;57582;-34.876;138.628;2023-08-07T09:25:04;102550;;;16.00;52.69
70198;BME280;57582;-34.876;138.628;2023-08-07T09:28:05;102552;;;15.87;52.92
70198;BME280;57582;-34.876;138.628;2023-08-07T09:31:07;102552;;;15.74;53.06
70198;BME280;57582;-34.876;138.628;2023-08-07T09:34:04;102552;;;15.64;53.34
70198;BME280;57582;-34.876;138.628;2023-08-07T09:37:04;102555;;;15.53;53.61
70198;BME280;57582;-34.876;138.628;2023-08-07T09:40:04;102564;;;15.39;53.35
70198;BME280;57582;-34.876;138.628;2023-08-07T09:43:04;102564;;;15.30;53.65
70198;BME280;57582;-34.876;138.628;2023-08-07T09:46:04;102562;;;15.03;54.92
70198;BME280;57582;-34.876;138.628;2023-08-07T09:49:04;102558;;;14.88;54.45
70198;BME280;57582;-34.876;138.628;2023-08-07T09:52:05;102558;;;14.56;55.41
70198;BME280;57582;-34.876;138.628;2023-08-07T09:55:04;102562;;;14.33;55.72
70198;BME280;57582;-34.876;138.628;2023-08-07T09:58:05;102555;;;13.73;57.27
70198;BME280;57582;-34.876;138.628;2023-08-07T10:01:04;102552;;;13.26;57.80
70198;BME280;57582;-34.876;138.628;2023-08-07T10:04:04;102554;;;12.75;59.15
70198;BME280;57582;-34.876;138.628;2023-08-07T10:07:04;102557;;;12.54;59.96
70198;BME280;57582;-34.876;138.628;2023-08-07T10:10:04;102556;;;12.51;60.16
70198;BME280;57582;-34.876;138.628;2023-08-07T10:13:04;102562;;;12.28;60.38
70198;BME280;57582;-34.876;138.628;2023-08-07T10:16:04;102568;;;12.36;60.23
70198;BME280;57582;-34.876;138.628;2023-08-07T10:19:04;102570;;;12.52;59.82
70198;BME280;57582;-34.876;138.628;2023-08-07T10:22:05;102575;;;12.58;59.53
70198;BME280;57582;-34.876;138.628;2023-08-07T10:25:04;102570;;;12.33;60.11
70198;BME280;57582;-34.876;138.628;2023-08-07T10:28:04;102568;;;12.30;60.25
70198;BME280;57582;-34.876;138.628;2023-08-07T10:31:05;102562;;;12.28;60.19
70198;BME280;57582;-34.876;138.628;2023-08-07T10:34:04;102567;;;12.28;60.24
70198;BME280;57582;-34.876;138.628;2023-08-07T10:37:07;102560;;;12.32;59.97
70198;BME280;57582;-34.876;138.628;2023-08-07T10:40:04;102556;;;12.51;59.57
70198;BME280;57582;-34.876;138.628;2023-08-07T10:46:05;102554;;;12.75;59.21
70198;BME280;57582;-34.876;138.628;2023-08-07T10:49:04;102546;;;12.77;58.51
70198;BME280;57582;-34.876;138.628;2023-08-07T10:52:08;102547;;;12.58;59.20
70198;BME280;57582;-34.876;138.628;2023-08-07T10:55:12;102558;;;12.71;59.00
70198;BME280;57582;-34.876;138.628;2023-08-07T10:58:04;102551;;;12.68;59.13
70198;BME280;57582;-34.876;138.628;2023-08-07T11:04:06;102552;;;12.71;58.79
70198;BME280;57582;-34.876;138.628;2023-08-07T11:07:04;102555;;;12.90;58.45
70198;BME280;57582;-34.876;138.628;2023-08-07T11:10:04;102551;;;13.00;58.08
70198;BME280;57582;-34.876;138.628;2023-08-07T11:13:04;102557;;;12.96;57.87
70198;BME280;57582;-34.876;138.628;2023-08-07T11:16:04;102547;;;12.94;58.04
70198;BME280;57582;-34.876;138.628;2023-08-07T11:19:04;102551;;;13.05;57.89
70198;BME280;57582;-34.876;138.628;2023-08-07T11:22:04;102543;;;13.10;57.46
70198;BME280;57582;-34.876;138.628;2023-08-07T11:25:04;102541;;;13.17;57.05
70198;BME280;57582;-34.876;138.628;2023-08-07T11:28:04;102543;;;13.07;57.55
70198;BME280;57582;-34.876;138.628;2023-08-07T11:31:04;102548;;;13.13;56.85
70198;BME280;57582;-34.876;138.628;2023-08-07T11:34:04;102541;;;13.09;57.18
70198;BME280;57582;-34.876;138.628;2023-08-07T11:37:04;102537;;;13.10;56.93
70198;BME280;57582;-34.876;138.628;2023-08-07T11:40:04;102549;;;13.04;57.13
70198;BME280;57582;-34.876;138.628;2023-08-07T11:43:04;102542;;;12.97;57.61
70198;BME280;57582;-34.876;138.628;2023-08-07T11:46:05;102539;;;12.83;57.95
70198;BME280;57582;-34.876;138.628;2023-08-07T11:49:04;102544;;;12.88;57.61
70198;BME280;57582;-34.876;138.628;2023-08-07T11:52:04;102550;;;12.98;57.29
70198;BME280;57582;-34.876;138.628;2023-08-07T11:55:04;102546;;;13.05;56.41
70198;BME280;57582;-34.876;138.628;2023-08-07T11:58:04;102546;;;13.04;56.64
70198;BME280;57582;-34.876;138.628;2023-08-07T12:01:05;102551;;;13.07;56.34
70198;BME280;57582;-34.876;138.628;2023-08-07T12:07:04;102560;;;12.98;56.07
70198;BME280;57582;-34.876;138.628;2023-08-07T12:10:08;102538;;;12.86;56.68
70198;BME280;57582;-34.876;138.628;2023-08-07T12:13:04;102557;;;12.92;56.09
70198;BME280;57582;-34.876;138.628;2023-08-07T12:16:04;102568;;;12.80;56.52
70198;BME280;57582;-34.876;138.628;2023-08-07T12:19:04;102562;;;12.67;56.65
70198;BME280;57582;-34.876;138.628;2023-08-07T12:22:06;102566;;;12.58;56.93
70198;BME280;57582;-34.876;138.628;2023-08-07T12:25:04;102570;;;12.56;57.24
70198;BME280;57582;-34.876;138.628;2023-08-07T12:28:04;102570;;;12.49;56.89
70198;BME280;57582;-34.876;138.628;2023-08-07T12:31:04;102573;;;12.48;57.79
70198;BME280;57582;-34.876;138.628;2023-08-07T12:34:04;102572;;;12.61;59.40
70198;BME280;57582;-34.876;138.628;2023-08-07T12:37:04;102563;;;12.88;58.05
70198;BME280;57582;-34.876;138.628;2023-08-07T12:40:04;102565;;;13.23;57.29
70198;BME280;57582;-34.876;138.628;2023-08-07T12:43:04;102561;;;13.52;55.95
70198;BME280;57582;-34.876;138.628;2023-08-07T12:46:04;102562;;;13.75;55.30
70198;BME280;57582;-34.876;138.628;2023-08-07T12:49:04;102569;;;13.99;53.43
70198;BME280;57582;-34.876;138.628;2023-08-07T12:52:04;102571;;;14.03;53.01
70198;BME280;57582;-34.876;138.628;2023-08-07T12:55:04;102578;;;14.01;52.69
70198;BME280;57582;-34.876;138.628;2023-08-07T12:58:04;102567;;;13.88;53.56
70198;BME280;57582;-34.876;138.628;2023-08-07T13:01:04;102570;;;13.81;53.56
70198;BME280;57582;-34.876;138.628;2023-08-07T13:04:04;102558;;;13.64;54.07
70198;BME280;57582;-34.876;138.628;2023-08-07T13:07:04;102562;;;13.64;53.73
70198;BME280;57582;-34.876;138.628;2023-08-07T13:10:05;102570;;;12.84;56.42
70198;BME280;57582;-34.876;138.628;2023-08-07T13:13:04;102559;;;11.86;59.85
70198;BME280;57582;-34.876;138.628;2023-08-07T13:16:04;102560;;;11.42;61.78
70198;BME280;57582;-34.876;138.628;2023-08-07T13:19:04;102560;;;10.96;63.72
70198;BME280;57582;-34.876;138.628;2023-08-07T13:22:04;102559;;;10.87;64.28
70198;BME280;57582;-34.876;138.628;2023-08-07T13:25:04;102557;;;10.61;65.35
70198;BME280;57582;-34.876;138.628;2023-08-07T13:28:04;102552;;;10.45;66.68
70198;BME280;57582;-34.876;138.628;2023-08-07T13:31:04;102548;;;10.40;67.01
70198;BME280;57582;-34.876;138.628;2023-08-07T13:34:04;102542;;;10.52;66.70
70198;BME280;57582;-34.876;138.628;2023-08-07T13:37:05;102539;;;10.42;67.23
70198;BME280;57582;-34.876;138.628;2023-08-07T13:40:05;102531;;;10.48;67.27
70198;BME280;57582;-34.876;138.628;2023-08-07T13:43:04;102530;;;10.55;67.31
70198;BME280;57582;-34.876;138.628;2023-08-07T13:46:04;102532;;;10.65;66.83
70198;BME280;57582;-34.876;138.628;2023-08-07T13:49:04;102525;;;10.58;67.14
70198;BME280;57582;-34.876;138.628;2023-08-07T13:52:04;102519;;;10.86;66.33
70198;BME280;57582;-34.876;138.628;2023-08-07T13:55:04;102525;;;11.02;65.36
70198;BME280;57582;-34.876;138.628;2023-08-07T13:58:04;102519;;;11.13;64.96
70198;BME280;57582;-34.876;138.628;2023-08-07T14:01:04;102504;;;11.31;64.20
70198;BME280;57582;-34.876;138.628;2023-08-07T14:04:04;102504;;;11.56;62.78
70198;BME280;57582;-34.876;138.628;2023-08-07T14:07:04;102511;;;11.73;61.50
70198;BME280;57582;-34.876;138.628;2023-08-07T14:10:04;102510;;;11.92;60.68
70198;BME280;57582;-34.876;138.628;2023-08-07T14:13:04;102499;;;11.93;59.85
70198;BME280;57582;-34.876;138.628;2023-08-07T14:16:04;102496;;;11.79;61.21
70198;BME280;57582;-34.876;138.628;2023-08-07T14:19:04;102490;;;11.58;62.68
70198;BME280;57582;-34.876;138.628;2023-08-07T14:22:04;102499;;;11.64;61.87
70198;BME280;57582;-34.876;138.628;2023-08-07T14:25:04;102499;;;11.79;61.18
70198;BME280;57582;-34.876;138.628;2023-08-07T14:28:04;102510;;;11.82;59.80
70198;BME280;57582;-34.876;138.628;2023-08-07T14:31:08;102504;;;11.85;59.67
70198;BME280;57582;-34.876;138.628;2023-08-07T14:34:04;102512;;;11.93;59.66
70198;BME280;57582;-34.876;138.628;2023-08-07T14:37:04;102506;;;11.86;58.84
70198;BME280;57582;-34.876;138.628;2023-08-07T14:40:04;102500;;;11.83;59.48
70198;BME280;57582;-34.876;138.628;2023-08-07T14:43:04;102498;;;11.81;58.44
70198;BME280;57582;-34.876;138.628;2023-08-07T14:46:04;102501;;;11.74;58.42
70198;BME280;57582;-34.876;138.628;2023-08-07T14:49:04;102503;;;11.71;58.36
70198;BME280;57582;-34.876;138.628;2023-08-07T14:52:04;102493;;;11.69;58.55
70198;BME280;57582;-34.876;138.628;2023-08-07T14:55:04;102501;;;11.51;59.71
70198;BME280;57582;-34.876;138.628;2023-08-07T14:58:05;102492;;;11.27;62.15
70198;BME280;57582;-34.876;138.628;2023-08-07T15:01:04;102488;;;11.33;60.92
70198;BME280;57582;-34.876;138.628;2023-08-07T15:04:04;102490;;;11.37;60.92
70198;BME280;57582;-34.876;138.628;2023-08-07T15:07:05;102484;;;11.35;60.46
70198;BME280;57582;-34.876;138.628;2023-08-07T15:10:04;102484;;;11.30;60.47
70198;BME280;57582;-34.876;138.628;2023-08-07T15:13:04;102492;;;11.33;60.53
70198;BME280;57582;-34.876;138.628;2023-08-07T15:16:04;102495;;;11.35;60.23
70198;BME280;57582;-34.876;138.628;2023-08-07T15:19:04;102489;;;11.44;60.21
70198;BME280;57582;-34.876;138.628;2023-08-07T15:22:04;102491;;;11.50;60.24
70198;BME280;57582;-34.876;138.628;2023-08-07T15:25:04;102493;;;11.50;59.96
70198;BME280;57582;-34.876;138.628;2023-08-07T15:28:05;102492;;;11.46;59.78
70198;BME280;57582;-34.876;138.628;2023-08-07T15:31:04;102489;;;11.33;59.62
70198;BME280;57582;-34.876;138.628;2023-08-07T15:34:04;102482;;;11.20;61.36
70198;BME280;57582;-34.876;138.628;2023-08-07T15:37:04;102476;;;11.15;61.53
70198;BME280;57582;-34.876;138.628;2023-08-07T15:40:04;102477;;;11.15;61.17
70198;BME280;57582;-34.876;138.628;2023-08-07T15:43:05;102471;;;11.08;60.83
70198;BME280;57582;-34.876;138.628;2023-08-07T15:46:04;102480;;;11.04;60.64
70198;BME280;57582;-34.876;138.628;2023-08-07T15:49:04;102476;;;10.99;60.78
70198;BME280;57582;-34.876;138.628;2023-08-07T15:52:04;102471;;;10.96;61.24